createdAt,value
2019-02-27T00:01:11.372Z,21.37
2019-02-27T00:03:43.404Z,22.50
2019-02-27T00:06:15.833Z,24.77
2019-02-27T00:08:46.154Z,24.53
2019-02-27T00:11:16.660Z,27.30
2019-02-27T00:13:48.185Z,42.67
2019-02-27T00:16:18.622Z,55.00
2019-02-27T00:18:49.081Z,53.73
2019-02-27T00:21:20.603Z,50.87
2019-02-27T00:23:51.279Z,46.80
2019-02-27T00:26:21.771Z,51.60
2019-02-27T00:28:55.979Z,49.00
2019-02-27T00:31:24.424Z,53.30
2019-02-27T00:33:59.514Z,54.90
2019-02-27T00:36:27.112Z,53.93
2019-02-27T00:38:58.463Z,52.77
2019-02-27T00:41:29.016Z,49.23
2019-02-27T00:44:01.351Z,50.47
2019-02-27T00:46:31.955Z,46.10
2019-02-27T00:49:02.416Z,49.10
2019-02-27T00:51:32.928Z,41.73
2019-02-27T00:54:03.539Z,27.40
2019-02-27T00:56:34.053Z,27.27
2019-02-27T00:59:04.528Z,27.80
2019-02-27T01:01:36.048Z,25.73
2019-02-27T01:04:06.591Z,29.80
2019-02-27T01:06:37.105Z,29.07
2019-02-27T01:09:07.647Z,28.07
2019-02-27T01:11:39.706Z,30.07
2019-02-27T01:14:10.172Z,27.30
2019-02-27T01:16:40.825Z,27.37
2019-02-27T01:19:11.371Z,29.03
2019-02-27T01:21:41.813Z,29.33
2019-02-27T01:24:12.345Z,28.70
2019-02-27T01:26:42.765Z,28.17
2019-02-27T01:29:15.723Z,30.53
2019-02-27T01:31:47.876Z,30.73
2019-02-27T01:34:18.338Z,33.57
2019-02-27T01:36:48.787Z,32.47
2019-02-27T01:39:19.190Z,30.70
2019-02-27T01:41:49.704Z,32.50
2019-02-27T01:44:21.339Z,34.97
2019-02-27T01:46:51.786Z,35.00
2019-02-27T01:49:22.256Z,36.90
2019-02-27T01:51:52.695Z,35.87
2019-02-27T01:54:23.158Z,34.50
2019-02-27T01:56:53.677Z,33.13
2019-02-27T01:59:24.135Z,32.83
2019-02-27T02:01:54.646Z,32.37
2019-02-27T02:04:25.152Z,32.10
2019-02-27T02:06:55.656Z,30.80
2019-02-27T02:09:33.322Z,30.40
2019-02-27T02:12:18.938Z,30.90
2019-02-27T02:15:01.640Z,30.33
2019-02-27T02:17:48.974Z,30.30
2019-02-27T02:20:45.612Z,30.73
2019-02-27T02:23:28.549Z,30.73
2019-02-27T02:26:23.525Z,28.23
2019-02-27T02:29:23.128Z,29.13
2019-02-27T02:32:16.815Z,29.57
2019-02-27T02:35:02.362Z,29.57
2019-02-27T02:37:39.100Z,28.27
2019-02-27T02:40:30.801Z,28.10
2019-02-27T02:43:24.659Z,27.53
2019-02-27T02:46:22.841Z,28.13
2019-02-27T02:49:12.997Z,28.20
2019-02-27T02:51:49.384Z,27.50
2019-02-27T02:54:29.015Z,29.43
2019-02-27T02:57:08.593Z,27.20
2019-02-27T02:59:51.055Z,28.03
2019-02-27T03:02:30.377Z,28.33
2019-02-27T03:05:26.465Z,28.37
2019-02-27T03:08:20.242Z,29.67
2019-02-27T03:11:09.866Z,29.57
2019-02-27T03:13:46.272Z,29.40
2019-02-27T03:16:19.978Z,29.57
2019-02-27T03:19:10.131Z,29.10
2019-02-27T03:22:04.523Z,29.23
2019-02-27T03:25:03.635Z,29.60
2019-02-27T03:28:05.774Z,33.90
2019-02-27T03:30:56.189Z,33.57
2019-02-27T03:34:05.902Z,34.13
2019-02-27T03:36:52.938Z,34.73
2019-02-27T03:39:35.899Z,32.27
2019-02-27T03:42:24.713Z,34.93
2019-02-27T03:44:58.424Z,34.90
2019-02-27T03:47:32.215Z,35.40
2019-02-27T03:50:25.507Z,34.93
2019-02-27T03:53:20.234Z,34.20
2019-02-27T03:56:19.691Z,35.60
2019-02-27T03:59:06.246Z,33.37
2019-02-27T04:02:05.755Z,32.07
2019-02-27T04:05:07.146Z,29.97
2019-02-27T04:07:38.847Z,29.80
2019-02-27T04:10:09.366Z,32.33
2019-02-27T04:12:39.827Z,31.73
2019-02-27T04:15:10.347Z,25.40
2019-02-27T04:17:39.847Z,24.97
2019-02-27T04:20:14.678Z,28.27
2019-02-27T04:22:42.535Z,25.70
2019-02-27T04:25:13.003Z,26.70
2019-02-27T04:27:43.457Z,28.60
2019-02-27T04:30:15.679Z,25.53
2019-02-27T04:32:48.781Z,26.90
2019-02-27T04:35:19.399Z,26.50
2019-02-27T04:37:53.930Z,30.23
2019-02-27T04:40:21.984Z,29.97
2019-02-27T04:42:52.499Z,36.50
2019-02-27T04:45:22.949Z,35.87
2019-02-27T04:47:53.496Z,27.80
2019-02-27T04:50:23.955Z,26.53
2019-02-27T04:52:57.596Z,27.40
2019-02-27T04:55:26.565Z,25.23
2019-02-27T04:57:57.009Z,26.40
2019-02-27T05:00:27.513Z,27.93
2019-02-27T05:02:57.973Z,28.57
2019-02-27T05:05:28.447Z,29.47
2019-02-27T05:07:58.881Z,28.40
2019-02-27T05:10:30.516Z,30.43
2019-02-27T05:13:01.021Z,33.10
2019-02-27T05:15:31.487Z,30.77
2019-02-27T05:18:02.012Z,29.47
2019-02-27T05:20:32.542Z,29.13
2019-02-27T05:23:04.525Z,28.53
2019-02-27T05:25:35.011Z,29.57
2019-02-27T05:28:05.530Z,29.20
2019-02-27T05:30:37.077Z,27.53
2019-02-27T05:33:07.525Z,26.77
2019-02-27T05:35:37.998Z,26.70
2019-02-27T05:38:08.433Z,27.43
2019-02-27T05:40:38.915Z,26.13
2019-02-27T05:43:13.165Z,29.00
2019-02-27T05:45:41.551Z,28.00
2019-02-27T05:48:11.993Z,29.57
2019-02-27T05:50:44.381Z,27.23
2019-02-27T05:53:14.816Z,25.13
2019-02-27T05:55:45.441Z,25.50
2019-02-27T05:58:15.878Z,24.33
2019-02-27T06:00:46.487Z,24.20
2019-02-27T06:03:18.337Z,23.97
2019-02-27T06:05:49.846Z,22.57
2019-02-27T06:08:20.435Z,23.93
2019-02-27T06:10:55.200Z,24.93
2019-02-27T06:13:23.506Z,30.40
2019-02-27T06:15:54.264Z,35.37
2019-02-27T06:18:24.759Z,30.80
2019-02-27T06:20:55.521Z,28.37
2019-02-27T06:23:27.278Z,34.60
2019-02-27T06:25:59.571Z,41.57
2019-02-27T06:28:29.872Z,33.97
2019-02-27T06:31:02.510Z,26.70
2019-02-27T06:33:34.539Z,25.73
2019-02-27T06:36:07.709Z,27.20
2019-02-27T06:38:37.442Z,31.70
2019-02-27T06:41:07.972Z,39.97
2019-02-27T06:43:38.497Z,46.37
2019-02-27T06:46:09.128Z,37.17
2019-02-27T06:48:43.026Z,27.23
2019-02-27T06:51:11.803Z,23.73
2019-02-27T06:53:42.372Z,23.27
2019-02-27T06:56:12.879Z,23.57
2019-02-27T06:58:43.407Z,26.20
2019-02-27T07:01:13.942Z,26.10
2019-02-27T07:03:44.468Z,27.07
2019-02-27T07:06:14.995Z,26.40
2019-02-27T07:08:45.625Z,27.13
2019-02-27T07:11:16.258Z,26.67
2019-02-27T07:13:46.701Z,28.90
2019-02-27T07:16:17.311Z,28.23
2019-02-27T07:18:47.843Z,31.03
2019-02-27T07:21:18.315Z,31.40
2019-02-27T07:23:48.756Z,27.20
2019-02-27T07:26:19.331Z,28.93
2019-02-27T07:28:49.954Z,32.43
2019-02-27T07:31:20.483Z,47.17
2019-02-27T07:33:51.012Z,39.50
2019-02-27T07:36:21.544Z,34.13
2019-02-27T07:38:54.330Z,28.87
2019-02-27T07:41:24.338Z,30.97
2019-02-27T07:43:55.746Z,33.63
2019-02-27T07:46:26.290Z,34.10
2019-02-27T07:48:57.327Z,30.27
2019-02-27T07:51:28.903Z,31.00
2019-02-27T07:53:59.398Z,29.03
2019-02-27T07:56:34.341Z,31.33
2019-02-27T07:59:04.844Z,29.97
2019-02-27T08:01:43.466Z,28.20
2019-02-27T08:04:07.502Z,29.03
2019-02-27T08:06:38.490Z,28.63
2019-02-27T08:09:09.164Z,29.80
2019-02-27T08:11:40.707Z,28.57
2019-02-27T08:14:13.009Z,28.67
2019-02-27T08:16:43.607Z,28.00
2019-02-27T08:19:15.215Z,31.23
2019-02-27T08:21:45.804Z,30.10
2019-02-27T08:24:16.466Z,29.43
2019-02-27T08:26:49.031Z,29.27
2019-02-27T08:29:19.133Z,30.53
2019-02-27T08:31:49.596Z,30.57
2019-02-27T08:34:20.036Z,30.63
2019-02-27T08:36:50.516Z,30.07
2019-02-27T08:39:20.948Z,28.90
2019-02-27T08:41:51.531Z,29.87
2019-02-27T08:47:00.401Z,31.40
2019-02-27T08:49:31.860Z,31.47
2019-02-27T08:52:03.409Z,31.00
2019-02-27T08:54:33.833Z,31.87
2019-02-27T08:57:04.358Z,28.67
2019-02-27T08:59:36.985Z,31.33
2019-02-27T09:02:08.387Z,30.37
2019-02-27T09:04:38.807Z,29.50
2019-02-27T09:07:09.340Z,32.50
2019-02-27T09:09:39.765Z,33.40
2019-02-27T09:12:13.119Z,33.50
2019-02-27T09:14:42.871Z,33.37
2019-02-27T09:17:13.302Z,33.45
2019-02-27T09:19:45.558Z,31.63
2019-02-27T09:22:17.119Z,29.20
2019-02-27T09:24:47.648Z,31.27
2019-02-27T09:27:18.178Z,31.73
2019-02-27T09:29:49.350Z,31.82
2019-02-27T09:32:20.506Z,30.00
2019-02-27T09:34:51.942Z,22.45
2019-02-27T09:37:22.477Z,28.92
2019-02-27T09:40:16.653Z,30.75
2019-02-27T09:42:53.144Z,29.50
2019-02-27T09:45:27.598Z,28.52
2019-02-27T09:47:59.897Z,28.32
2019-02-27T09:50:35.542Z,28.92
2019-02-27T09:53:06.017Z,31.37
2019-02-27T09:55:36.532Z,31.40
2019-02-27T09:58:11.080Z,30.62
2019-02-27T10:00:42.651Z,31.85
2019-02-27T10:03:13.265Z,32.42
2019-02-27T10:05:43.702Z,31.73
2019-02-27T10:08:14.170Z,30.05
2019-02-27T10:10:45.886Z,30.60
2019-02-27T10:13:16.805Z,30.25
2019-02-27T10:15:47.250Z,28.92
2019-02-27T10:18:18.852Z,28.85
2019-02-27T10:20:49.999Z,32.85
2019-02-27T10:23:20.676Z,32.15
2019-02-27T10:25:51.353Z,32.48
2019-02-27T10:28:22.195Z,25.88
2019-02-27T10:30:54.384Z,28.47
2019-02-27T10:33:25.901Z,30.88
2019-02-27T10:35:56.978Z,31.90
2019-02-27T10:38:27.774Z,33.53
2019-02-27T10:40:58.456Z,33.25
2019-02-27T10:43:29.317Z,33.85
2019-02-27T10:46:00.528Z,33.30
2019-02-27T10:48:31.579Z,38.42
2019-02-27T10:51:02.306Z,34.58
2019-02-27T10:53:33.145Z,34.90
2019-02-27T10:56:08.535Z,33.70
2019-02-27T10:58:45.049Z,32.80
2019-02-27T11:01:15.191Z,37.58
2019-02-27T11:03:45.974Z,34.98
2019-02-27T11:06:16.589Z,35.73
2019-02-27T11:08:47.309Z,36.48
2019-02-27T11:11:18.039Z,37.50
2019-02-27T11:13:51.769Z,34.40
2019-02-27T11:16:22.000Z,39.63
2019-02-27T11:18:52.773Z,37.20
2019-02-27T11:21:23.501Z,36.63
2019-02-27T11:23:54.144Z,41.77
2019-02-27T11:26:26.283Z,28.50
2019-02-27T11:28:57.793Z,39.27
2019-02-27T11:31:28.686Z,39.75
2019-02-27T11:34:01.104Z,40.05
2019-02-27T11:36:32.588Z,39.15
2019-02-27T11:39:04.774Z,41.10
2019-02-27T11:41:36.821Z,45.40
2019-02-27T11:44:07.371Z,39.63
2019-02-27T11:46:38.906Z,39.03
2019-02-27T11:49:09.453Z,36.83
2019-02-27T11:51:39.892Z,41.33
2019-02-27T11:54:10.376Z,39.15
2019-02-27T11:56:40.866Z,41.42
2019-02-27T11:59:12.952Z,39.80
2019-02-27T12:01:43.438Z,39.78
2019-02-27T12:04:13.906Z,41.33
2019-02-27T12:06:44.333Z,39.58
2019-02-27T12:09:14.775Z,39.63
2019-02-27T12:11:48.363Z,40.92
2019-02-27T12:14:18.963Z,42.27
2019-02-27T12:16:51.695Z,42.50
2019-02-27T12:19:21.575Z,40.50
2019-02-27T12:21:52.197Z,43.33
2019-02-27T12:24:22.636Z,42.48
2019-02-27T12:26:52.996Z,43.10
2019-02-27T12:29:24.151Z,40.45
2019-02-27T12:31:55.658Z,42.43
2019-02-27T12:34:26.102Z,44.30
2019-02-27T12:36:56.541Z,40.35
2019-02-27T12:39:27.022Z,44.60
2019-02-27T12:41:57.752Z,42.45
2019-02-27T12:44:28.226Z,40.52
2019-02-27T12:46:58.680Z,41.13
2019-02-27T12:49:29.166Z,42.62
2019-02-27T12:51:59.723Z,45.03
2019-02-27T12:54:30.271Z,43.73
2019-02-27T12:57:00.729Z,47.55
2019-02-27T12:59:33.017Z,44.58
2019-02-27T13:02:10.289Z,44.18
2019-02-27T13:04:42.666Z,45.55
2019-02-27T13:07:13.732Z,44.88
2019-02-27T13:09:44.217Z,40.90
2019-02-27T13:12:14.933Z,45.98
2019-02-27T13:14:46.902Z,43.08
2019-02-27T13:17:17.718Z,43.17
2019-02-27T13:19:48.366Z,44.77
2019-02-27T13:22:18.799Z,39.83
2019-02-27T13:24:50.260Z,45.23
2019-02-27T13:27:21.486Z,41.85
2019-02-27T13:29:55.401Z,46.42
2019-02-27T13:32:27.322Z,42.67
2019-02-27T13:34:57.173Z,45.35
2019-02-27T13:37:28.021Z,42.13
2019-02-27T13:40:00.425Z,40.23
2019-02-27T13:42:30.598Z,41.37
2019-02-27T13:45:01.076Z,41.77
2019-02-27T13:47:31.782Z,43.38
2019-02-27T13:50:03.353Z,43.13
2019-02-27T13:52:34.452Z,42.88
2019-02-27T13:55:11.149Z,44.60
2019-02-27T13:57:44.525Z,43.15
2019-02-27T14:00:31.670Z,44.53
2019-02-27T14:03:02.327Z,41.30
2019-02-27T14:05:36.977Z,43.90
2019-02-27T14:08:08.280Z,43.73
2019-02-27T14:10:39.620Z,41.88
2019-02-27T14:13:10.367Z,40.58
2019-02-27T14:15:44.815Z,42.35
2019-02-27T14:18:32.243Z,44.08
2019-02-27T14:21:05.770Z,46.92
2019-02-27T14:23:36.285Z,43.95
2019-02-27T14:26:09.098Z,45.48
2019-02-27T14:28:43.443Z,48.13
2019-02-27T14:31:13.939Z,48.10
2019-02-27T14:33:44.940Z,45.45
2019-02-27T14:36:43.185Z,42.48
2019-02-27T14:39:13.910Z,45.85
2019-02-27T14:41:48.786Z,43.83
2019-02-27T14:44:35.385Z,44.27
2019-02-27T14:47:16.523Z,43.17
2019-02-27T14:49:50.770Z,41.20
2019-02-27T14:52:21.238Z,40.90
2019-02-27T14:54:54.077Z,43.13
2019-02-27T14:57:34.369Z,45.17
2019-02-27T15:00:17.586Z,40.92
2019-02-27T15:02:48.131Z,40.12
2019-02-27T15:05:19.178Z,39.70
2019-02-27T15:07:49.795Z,41.30
2019-02-27T15:10:21.357Z,38.45
2019-02-27T15:12:55.046Z,41.33
2019-02-27T15:15:31.177Z,38.40
2019-02-27T15:18:01.938Z,37.50
2019-02-27T15:20:34.485Z,36.60
2019-02-27T15:23:04.704Z,36.00
2019-02-27T15:25:35.241Z,36.70
2019-02-27T15:28:05.731Z,38.78
2019-02-27T15:30:36.314Z,43.38
2019-02-27T15:33:06.885Z,35.73
2019-02-27T15:35:37.469Z,35.68
2019-02-27T15:38:11.234Z,35.35
2019-02-27T15:40:40.213Z,33.95
2019-02-27T15:43:11.671Z,35.23
2019-02-27T15:45:48.013Z,34.78
2019-02-27T15:48:14.665Z,36.90
2019-02-27T15:50:45.297Z,37.73
2019-02-27T15:53:15.924Z,33.70
2019-02-27T15:55:46.500Z,33.65
2019-02-27T15:58:18.023Z,32.55
2019-02-27T16:00:52.147Z,30.62
2019-02-27T16:03:22.855Z,31.10
2019-02-27T16:05:52.883Z,31.87
2019-02-27T16:08:25.466Z,30.20
2019-02-27T16:10:55.871Z,32.75
2019-02-27T16:13:26.500Z,33.53
2019-02-27T16:15:56.997Z,34.05
2019-02-27T16:18:27.616Z,34.85
2019-02-27T16:20:58.634Z,35.28
2019-02-27T16:23:29.269Z,33.50
2019-02-27T16:26:00.161Z,33.78
2019-02-27T16:28:31.343Z,31.93
2019-02-27T16:31:05.748Z,34.33
2019-02-27T16:33:35.055Z,31.73
2019-02-27T16:36:05.655Z,31.50
2019-02-27T16:38:36.327Z,32.58
2019-02-27T16:41:07.364Z,30.08
2019-02-27T16:43:38.402Z,32.30
2019-02-27T16:46:09.010Z,33.25
2019-02-27T16:48:39.610Z,35.85
2019-02-27T16:51:10.243Z,36.35
2019-02-27T16:53:40.735Z,34.98
2019-02-27T16:56:12.973Z,34.45
2019-02-27T16:58:43.581Z,34.13
2019-02-27T17:01:14.174Z,32.58
2019-02-27T17:03:49.858Z,34.58
2019-02-27T17:06:18.207Z,35.20
2019-02-27T17:08:50.881Z,35.52
2019-02-27T17:11:23.616Z,37.60
2019-02-27T17:13:54.795Z,40.03
2019-02-27T17:16:25.228Z,40.17
2019-02-27T17:18:59.178Z,40.55
2019-02-27T17:21:32.289Z,38.33
2019-02-27T17:24:02.997Z,39.70
2019-02-27T17:26:35.274Z,41.05
2019-02-27T17:29:08.045Z,45.30
2019-02-27T17:31:49.063Z,56.10
2019-02-27T17:34:14.386Z,59.45
2019-02-27T17:36:45.205Z,43.98
2019-02-27T17:39:16.367Z,39.38
2019-02-27T17:41:46.944Z,34.85
2019-02-27T17:44:17.516Z,35.98
2019-02-27T17:46:51.681Z,35.23
2019-02-27T17:49:25.400Z,35.83
2019-02-27T17:51:55.419Z,35.63
2019-02-27T17:54:31.316Z,35.95
2019-02-27T17:57:00.970Z,38.15
2019-02-27T17:59:32.612Z,38.92
2019-02-27T18:02:03.173Z,39.18
2019-02-27T18:04:33.847Z,41.83
2019-02-27T18:07:06.272Z,43.68
2019-02-27T18:09:36.994Z,42.65
2019-02-27T18:12:07.651Z,44.75
2019-02-27T18:14:43.885Z,43.38
2019-02-27T18:17:10.573Z,47.55
2019-02-27T18:19:41.557Z,45.12
2019-02-27T18:22:14.720Z,41.85
2019-02-27T18:24:44.171Z,42.75
2019-02-27T18:27:14.612Z,39.90
2019-02-27T18:29:45.088Z,43.95
2019-02-27T18:32:15.602Z,41.63
2019-02-27T18:34:46.116Z,41.75
2019-02-27T18:37:19.063Z,42.73
2019-02-27T18:39:48.790Z,40.83
2019-02-27T18:42:20.737Z,35.52
2019-02-27T18:44:51.642Z,35.55
2019-02-27T18:47:22.194Z,33.50
2019-02-27T18:49:53.068Z,33.02
2019-02-27T18:52:23.709Z,31.42
2019-02-27T18:54:55.521Z,35.88
2019-02-27T18:57:27.155Z,34.20
2019-02-27T19:00:01.404Z,35.52
2019-02-27T19:02:29.994Z,34.70
2019-02-27T19:05:00.513Z,34.50
2019-02-27T19:07:31.116Z,34.95
2019-02-27T19:10:03.788Z,35.38
2019-02-27T19:12:35.044Z,45.20
2019-02-27T19:15:11.281Z,39.30
2019-02-27T19:17:41.250Z,36.35
2019-02-27T19:20:23.621Z,35.40
2019-02-27T19:22:52.538Z,34.40
2019-02-27T19:25:23.078Z,34.13
2019-02-27T19:27:53.653Z,32.90
2019-02-27T19:30:26.102Z,33.48
2019-02-27T19:33:01.585Z,33.18
2019-02-27T19:35:28.729Z,34.27
2019-02-27T19:37:59.346Z,35.10
2019-02-27T19:40:31.198Z,35.60
2019-02-27T19:43:05.842Z,34.48
2019-02-27T19:45:36.643Z,30.68
2019-02-27T19:48:07.270Z,30.05
2019-02-27T19:50:37.802Z,30.77
2019-02-27T19:53:08.291Z,29.98
2019-02-27T19:55:38.915Z,27.73
2019-02-27T19:58:09.426Z,31.42
2019-02-27T20:00:47.916Z,31.05
2019-02-27T20:03:12.269Z,30.65
2019-02-27T20:05:42.820Z,28.98
2019-02-27T20:08:13.269Z,29.27
2019-02-27T20:10:44.239Z,32.17
2019-02-27T20:13:15.052Z,30.52
2019-02-27T20:15:46.533Z,29.10
2019-02-27T20:18:18.263Z,30.10
2019-02-27T20:20:48.865Z,29.70
2019-02-27T20:23:19.321Z,29.95
2019-02-27T20:25:49.862Z,31.87
2019-02-27T20:28:20.367Z,31.75
2019-02-27T20:30:50.906Z,32.67
2019-02-27T20:33:22.493Z,32.75
2019-02-27T20:35:55.801Z,34.67
2019-02-27T20:38:26.419Z,35.78
2019-02-27T20:40:57.039Z,34.70
2019-02-27T20:43:29.560Z,33.88
2019-02-27T20:45:59.910Z,33.48
2019-02-27T20:48:32.159Z,33.85
2019-02-27T20:51:31.098Z,34.08
2019-02-27T20:54:14.769Z,34.80
2019-02-27T20:56:55.301Z,33.80
2019-02-27T20:59:19.363Z,34.55
2019-02-27T21:01:49.965Z,34.27
2019-02-27T21:04:22.022Z,35.92
2019-02-27T21:06:52.734Z,36.70
2019-02-27T21:09:23.473Z,36.53
2019-02-27T21:11:53.975Z,38.15
2019-02-27T21:14:24.389Z,37.55
2019-02-27T21:16:54.883Z,36.63
2019-02-27T21:19:25.636Z,34.67
2019-02-27T21:21:56.285Z,34.63
2019-02-27T21:24:27.775Z,34.45
2019-02-27T21:26:58.317Z,34.90
2019-02-27T21:29:28.906Z,34.18
2019-02-27T21:32:01.596Z,36.65
2019-02-27T21:34:31.593Z,33.38
2019-02-27T21:37:02.204Z,35.03
2019-02-27T21:39:32.714Z,35.20
2019-02-27T21:42:03.212Z,35.28
2019-02-27T21:44:33.724Z,36.17
2019-02-27T21:47:04.269Z,34.40
2019-02-27T21:49:34.761Z,36.53
2019-02-27T21:52:05.285Z,38.00
2019-02-27T21:54:39.336Z,38.50
2019-02-27T21:57:08.765Z,38.35
2019-02-27T21:59:40.495Z,39.67
2019-02-27T22:02:11.751Z,37.45
2019-02-27T22:04:44.109Z,36.88
2019-02-27T22:07:14.424Z,35.95
2019-02-27T22:09:45.503Z,34.13
2019-02-27T22:12:16.128Z,34.00
2019-02-27T22:14:48.540Z,32.88
2019-02-27T22:17:18.810Z,31.12
2019-02-27T22:19:53.322Z,31.85
2019-02-27T22:22:22.509Z,31.12
2019-02-27T22:24:55.580Z,31.65
2019-02-27T22:27:25.125Z,31.12
2019-02-27T22:29:55.941Z,32.10
2019-02-27T22:32:26.406Z,31.82
2019-02-27T22:34:59.280Z,33.08
2019-02-27T22:37:30.143Z,31.02
2019-02-27T22:40:06.517Z,31.55
2019-02-27T22:42:32.805Z,31.70
2019-02-27T22:45:04.333Z,31.82
2019-02-27T22:47:35.554Z,29.82
2019-02-27T22:50:09.039Z,26.62
2019-02-27T22:52:39.509Z,28.45
2019-02-27T22:55:10.700Z,27.90
2019-02-27T22:57:41.474Z,26.62
2019-02-27T23:00:25.705Z,26.85
2019-02-27T23:02:57.781Z,24.77
2019-02-27T23:05:28.294Z,24.67
2019-02-27T23:07:59.824Z,25.43
2019-02-27T23:10:30.972Z,26.62
2019-02-27T23:13:02.400Z,22.52
2019-02-27T23:15:32.928Z,24.10
2019-02-27T23:18:05.766Z,25.72
2019-02-27T23:20:36.241Z,26.00
2019-02-27T23:23:06.703Z,26.10
2019-02-27T23:25:37.205Z,25.97
2019-02-27T23:28:07.739Z,26.77
2019-02-27T23:30:38.302Z,27.62
2019-02-27T23:33:08.888Z,28.80
2019-02-27T23:35:39.408Z,27.17
2019-02-27T23:38:09.872Z,27.45
2019-02-27T23:40:40.306Z,26.82
2019-02-27T23:43:10.769Z,26.87
2019-02-27T23:45:44.437Z,27.07
2019-02-27T23:48:15.070Z,25.32
2019-02-27T23:50:45.502Z,25.30
2019-02-27T23:53:15.970Z,25.12
2019-02-27T23:55:46.393Z,23.98
2019-02-27T23:58:16.854Z,22.82
